Belleville, Michigan
Current Conditions -  °F | °C
As of 6:53 AM on Tuesday 27 Jan 2015 (Local Time) from KYIP Reporting Station
Clear Clear  
Wind Chill:   Ceiling: Unl
Heat Index: 12°   Visibility: 10mi
Dew Point:   Wind: 6mph
Humidity: 70%   Direction: 10°N
Pressure: 30.04"   Gusts: NA
Location:  42.2°N, 83.48°W
Report Text: KYIP 271153Z AUTO 01005KT 10SM CLR M11/M16 A3004 RMK AO2 SLP184 I6000 T11111156 11100 21117 53018 TSNO
Loading
Personal Weather Stations






























Interactive Weather Map New forecast layout! Learn more

10-Day Weather Forecast

Advertisements
Track Severe Weather on mobile